sensor_id;sensor_type;location;lat;lon;timestamp;P1;durP1;ratioP1;P2;durP2;ratioP2
78774;SDS011;68119;43.398;3.676;2023-04-06T00:01:34;6.72;;;3.70;;
78774;SDS011;68119;43.398;3.676;2023-04-06T00:04:09;5.80;;;3.83;;
78774;SDS011;68119;43.398;3.676;2023-04-06T00:06:37;6.83;;;4.00;;
78774;SDS011;68119;43.398;3.676;2023-04-06T00:09:06;6.50;;;4.25;;
78774;SDS011;68119;43.398;3.676;2023-04-06T00:11:34;5.75;;;3.70;;
78774;SDS011;68119;43.398;3.676;2023-04-06T00:14:03;7.20;;;4.10;;
78774;SDS011;68119;43.398;3.676;2023-04-06T00:16:29;7.55;;;3.95;;
78774;SDS011;68119;43.398;3.676;2023-04-06T00:18:57;6.38;;;3.80;;
78774;SDS011;68119;43.398;3.676;2023-04-06T00:21:23;7.05;;;3.75;;
78774;SDS011;68119;43.398;3.676;2023-04-06T00:23:51;9.48;;;4.10;;
78774;SDS011;68119;43.398;3.676;2023-04-06T00:26:17;6.65;;;3.85;;
78774;SDS011;68119;43.398;3.676;2023-04-06T00:28:49;7.90;;;4.28;;
78774;SDS011;68119;43.398;3.676;2023-04-06T00:31:17;7.35;;;3.80;;
78774;SDS011;68119;43.398;3.676;2023-04-06T00:33:42;6.25;;;4.18;;
78774;SDS011;68119;43.398;3.676;2023-04-06T00:36:11;8.57;;;4.45;;
78774;SDS011;68119;43.398;3.676;2023-04-06T00:38:36;7.18;;;4.28;;
78774;SDS011;68119;43.398;3.676;2023-04-06T00:41:03;5.80;;;3.90;;
78774;SDS011;68119;43.398;3.676;2023-04-06T00:43:32;5.25;;;3.65;;
78774;SDS011;68119;43.398;3.676;2023-04-06T00:46:00;5.90;;;3.85;;
78774;SDS011;68119;43.398;3.676;2023-04-06T00:48:28;7.72;;;3.83;;
78774;SDS011;68119;43.398;3.676;2023-04-06T00:50:55;6.47;;;3.63;;
78774;SDS011;68119;43.398;3.676;2023-04-06T00:53:24;7.40;;;3.45;;
78774;SDS011;68119;43.398;3.676;2023-04-06T00:55:55;6.20;;;3.55;;
78774;SDS011;68119;43.398;3.676;2023-04-06T00:58:26;5.40;;;3.10;;
78774;SDS011;68119;43.398;3.676;2023-04-06T01:00:55;5.07;;;3.35;;
78774;SDS011;68119;43.398;3.676;2023-04-06T01:03:26;5.20;;;3.25;;
78774;SDS011;68119;43.398;3.676;2023-04-06T01:05:51;5.15;;;3.30;;
78774;SDS011;68119;43.398;3.676;2023-04-06T01:08:28;5.20;;;3.20;;
78774;SDS011;68119;43.398;3.676;2023-04-06T01:10:58;5.70;;;3.13;;
78774;SDS011;68119;43.398;3.676;2023-04-06T01:13:30;4.47;;;3.33;;
78774;SDS011;68119;43.398;3.676;2023-04-06T01:15:58;5.15;;;3.40;;
78774;SDS011;68119;43.398;3.676;2023-04-06T01:18:32;5.40;;;3.15;;
78774;SDS011;68119;43.398;3.676;2023-04-06T01:20:58;6.15;;;2.80;;
78774;SDS011;68119;43.398;3.676;2023-04-06T01:23:24;5.03;;;3.20;;
78774;SDS011;68119;43.398;3.676;2023-04-06T01:25:58;4.72;;;3.30;;
78774;SDS011;68119;43.398;3.676;2023-04-06T01:28:23;6.18;;;3.83;;
78774;SDS011;68119;43.398;3.676;2023-04-06T01:30:55;6.30;;;3.50;;
78774;SDS011;68119;43.398;3.676;2023-04-06T01:33:23;5.72;;;3.35;;
78774;SDS011;68119;43.398;3.676;2023-04-06T01:35:55;5.70;;;3.20;;
78774;SDS011;68119;43.398;3.676;2023-04-06T01:38:29;4.85;;;3.05;;
78774;SDS011;68119;43.398;3.676;2023-04-06T01:41:00;6.25;;;3.10;;
78774;SDS011;68119;43.398;3.676;2023-04-06T01:43:28;5.18;;;3.00;;
78774;SDS011;68119;43.398;3.676;2023-04-06T01:46:02;5.88;;;3.17;;
78774;SDS011;68119;43.398;3.676;2023-04-06T01:48:31;4.30;;;3.00;;
78774;SDS011;68119;43.398;3.676;2023-04-06T01:51:02;6.15;;;3.30;;
78774;SDS011;68119;43.398;3.676;2023-04-06T01:53:33;5.10;;;3.00;;
78774;SDS011;68119;43.398;3.676;2023-04-06T01:56:04;4.25;;;3.00;;
78774;SDS011;68119;43.398;3.676;2023-04-06T01:58:30;5.07;;;2.80;;
78774;SDS011;68119;43.398;3.676;2023-04-06T02:00:59;4.55;;;2.95;;
78774;SDS011;68119;43.398;3.676;2023-04-06T02:03:30;4.82;;;3.05;;
78774;SDS011;68119;43.398;3.676;2023-04-06T02:05:56;5.30;;;3.03;;
78774;SDS011;68119;43.398;3.676;2023-04-06T02:08:25;5.07;;;2.80;;
78774;SDS011;68119;43.398;3.676;2023-04-06T02:10:51;4.15;;;2.70;;
78774;SDS011;68119;43.398;3.676;2023-04-06T02:13:17;3.92;;;3.08;;
78774;SDS011;68119;43.398;3.676;2023-04-06T02:15:47;5.43;;;2.70;;
78774;SDS011;68119;43.398;3.676;2023-04-06T02:18:13;7.43;;;3.00;;
78774;SDS011;68119;43.398;3.676;2023-04-06T02:20:42;7.35;;;2.88;;
78774;SDS011;68119;43.398;3.676;2023-04-06T02:23:14;4.07;;;2.72;;
78774;SDS011;68119;43.398;3.676;2023-04-06T02:25:45;5.00;;;3.08;;
78774;SDS011;68119;43.398;3.676;2023-04-06T02:28:19;4.28;;;2.72;;
78774;SDS011;68119;43.398;3.676;2023-04-06T02:30:47;4.20;;;2.80;;
78774;SDS011;68119;43.398;3.676;2023-04-06T02:33:15;4.32;;;2.95;;
78774;SDS011;68119;43.398;3.676;2023-04-06T02:35:45;3.88;;;2.78;;
78774;SDS011;68119;43.398;3.676;2023-04-06T02:38:14;4.25;;;2.72;;
78774;SDS011;68119;43.398;3.676;2023-04-06T02:40:43;4.75;;;3.10;;
78774;SDS011;68119;43.398;3.676;2023-04-06T02:43:13;4.18;;;2.80;;
78774;SDS011;68119;43.398;3.676;2023-04-06T02:45:43;3.75;;;2.70;;
78774;SDS011;68119;43.398;3.676;2023-04-06T02:48:08;4.05;;;2.78;;
78774;SDS011;68119;43.398;3.676;2023-04-06T02:50:40;4.97;;;3.10;;
78774;SDS011;68119;43.398;3.676;2023-04-06T02:53:05;4.10;;;2.85;;
78774;SDS011;68119;43.398;3.676;2023-04-06T02:55:34;5.45;;;2.92;;
78774;SDS011;68119;43.398;3.676;2023-04-06T02:58:05;7.07;;;3.00;;
78774;SDS011;68119;43.398;3.676;2023-04-06T03:00:33;4.28;;;2.70;;
78774;SDS011;68119;43.398;3.676;2023-04-06T03:03:02;4.60;;;2.75;;
78774;SDS011;68119;43.398;3.676;2023-04-06T03:05:39;4.20;;;2.70;;
78774;SDS011;68119;43.398;3.676;2023-04-06T03:08:10;5.20;;;2.47;;
78774;SDS011;68119;43.398;3.676;2023-04-06T03:10:36;4.43;;;2.80;;
78774;SDS011;68119;43.398;3.676;2023-04-06T03:13:07;4.70;;;2.70;;
78774;SDS011;68119;43.398;3.676;2023-04-06T03:15:44;4.10;;;2.88;;
78774;SDS011;68119;43.398;3.676;2023-04-06T03:18:09;5.45;;;2.90;;
78774;SDS011;68119;43.398;3.676;2023-04-06T03:20:38;5.13;;;2.83;;
78774;SDS011;68119;43.398;3.676;2023-04-06T03:23:04;4.25;;;2.60;;
78774;SDS011;68119;43.398;3.676;2023-04-06T03:25:33;4.90;;;2.83;;
78774;SDS011;68119;43.398;3.676;2023-04-06T03:28:05;4.38;;;2.70;;
78774;SDS011;68119;43.398;3.676;2023-04-06T03:30:39;4.38;;;2.75;;
78774;SDS011;68119;43.398;3.676;2023-04-06T03:33:05;6.93;;;2.78;;
78774;SDS011;68119;43.398;3.676;2023-04-06T03:35:33;4.25;;;2.60;;
78774;SDS011;68119;43.398;3.676;2023-04-06T03:37:59;4.72;;;2.80;;
78774;SDS011;68119;43.398;3.676;2023-04-06T03:40:30;3.67;;;2.60;;
78774;SDS011;68119;43.398;3.676;2023-04-06T03:42:59;5.15;;;2.80;;
78774;SDS011;68119;43.398;3.676;2023-04-06T03:45:30;4.68;;;2.50;;
78774;SDS011;68119;43.398;3.676;2023-04-06T03:47:59;3.80;;;2.72;;
78774;SDS011;68119;43.398;3.676;2023-04-06T03:50:25;6.70;;;2.50;;
78774;SDS011;68119;43.398;3.676;2023-04-06T03:52:59;4.20;;;2.88;;
78774;SDS011;68119;43.398;3.676;2023-04-06T03:55:28;3.78;;;2.50;;
78774;SDS011;68119;43.398;3.676;2023-04-06T03:57:56;4.90;;;2.80;;
78774;SDS011;68119;43.398;3.676;2023-04-06T04:00:27;4.30;;;2.50;;
78774;SDS011;68119;43.398;3.676;2023-04-06T04:02:56;4.38;;;2.80;;
78774;SDS011;68119;43.398;3.676;2023-04-06T04:05:27;2.97;;;2.35;;
78774;SDS011;68119;43.398;3.676;2023-04-06T04:07:53;5.25;;;2.58;;
78774;SDS011;68119;43.398;3.676;2023-04-06T04:10:21;5.18;;;2.60;;
78774;SDS011;68119;43.398;3.676;2023-04-06T04:12:53;6.72;;;2.72;;
78774;SDS011;68119;43.398;3.676;2023-04-06T04:15:26;4.05;;;2.60;;
78774;SDS011;68119;43.398;3.676;2023-04-06T04:17:54;5.53;;;2.90;;
78774;SDS011;68119;43.398;3.676;2023-04-06T04:20:22;4.50;;;2.83;;
78774;SDS011;68119;43.398;3.676;2023-04-06T04:22:50;3.50;;;2.47;;
78774;SDS011;68119;43.398;3.676;2023-04-06T04:25:24;3.67;;;2.67;;
78774;SDS011;68119;43.398;3.676;2023-04-06T04:27:52;6.55;;;2.90;;
78774;SDS011;68119;43.398;3.676;2023-04-06T04:30:19;5.63;;;3.20;;
78774;SDS011;68119;43.398;3.676;2023-04-06T04:32:53;12.93;;;3.92;;
78774;SDS011;68119;43.398;3.676;2023-04-06T04:35:22;13.70;;;4.10;;
78774;SDS011;68119;43.398;3.676;2023-04-06T04:37:52;8.20;;;3.75;;
78774;SDS011;68119;43.398;3.676;2023-04-06T04:40:20;9.15;;;3.47;;
78774;SDS011;68119;43.398;3.676;2023-04-06T04:42:54;6.72;;;3.17;;
78774;SDS011;68119;43.398;3.676;2023-04-06T04:45:22;6.13;;;3.05;;
78774;SDS011;68119;43.398;3.676;2023-04-06T04:48:03;6.13;;;2.90;;
78774;SDS011;68119;43.398;3.676;2023-04-06T04:50:32;7.63;;;3.22;;
78774;SDS011;68119;43.398;3.676;2023-04-06T04:53:01;5.32;;;2.80;;
78774;SDS011;68119;43.398;3.676;2023-04-06T04:55:35;4.55;;;2.67;;
78774;SDS011;68119;43.398;3.676;2023-04-06T04:58:01;5.63;;;3.00;;
78774;SDS011;68119;43.398;3.676;2023-04-06T05:00:29;6.05;;;2.88;;
78774;SDS011;68119;43.398;3.676;2023-04-06T05:02:58;4.57;;;2.50;;
78774;SDS011;68119;43.398;3.676;2023-04-06T05:05:26;5.30;;;2.78;;
78774;SDS011;68119;43.398;3.676;2023-04-06T05:07:56;8.07;;;2.70;;
78774;SDS011;68119;43.398;3.676;2023-04-06T05:10:32;5.38;;;2.67;;
78774;SDS011;68119;43.398;3.676;2023-04-06T05:12:59;3.40;;;2.40;;
78774;SDS011;68119;43.398;3.676;2023-04-06T05:15:31;4.82;;;2.75;;
78774;SDS011;68119;43.398;3.676;2023-04-06T05:18:08;4.53;;;2.50;;
78774;SDS011;68119;43.398;3.676;2023-04-06T05:20:37;3.80;;;2.65;;
78774;SDS011;68119;43.398;3.676;2023-04-06T05:23:07;3.45;;;2.25;;
78774;SDS011;68119;43.398;3.676;2023-04-06T05:25:38;7.10;;;2.50;;
78774;SDS011;68119;43.398;3.676;2023-04-06T05:28:03;4.22;;;2.40;;
78774;SDS011;68119;43.398;3.676;2023-04-06T05:30:37;6.47;;;2.50;;
78774;SDS011;68119;43.398;3.676;2023-04-06T05:33:06;4.40;;;2.35;;
78774;SDS011;68119;43.398;3.676;2023-04-06T05:35:38;3.35;;;2.10;;
78774;SDS011;68119;43.398;3.676;2023-04-06T05:38:09;4.38;;;2.25;;
78774;SDS011;68119;43.398;3.676;2023-04-06T05:40:38;3.78;;;2.08;;
78774;SDS011;68119;43.398;3.676;2023-04-06T05:43:11;4.07;;;2.20;;
78774;SDS011;68119;43.398;3.676;2023-04-06T05:45:37;7.65;;;2.63;;
78774;SDS011;68119;43.398;3.676;2023-04-06T05:48:05;4.70;;;2.40;;
78774;SDS011;68119;43.398;3.676;2023-04-06T05:50:36;5.28;;;2.80;;
78774;SDS011;68119;43.398;3.676;2023-04-06T05:53:02;6.38;;;2.90;;
78774;SDS011;68119;43.398;3.676;2023-04-06T05:55:28;6.28;;;2.72;;
78774;SDS011;68119;43.398;3.676;2023-04-06T05:57:56;6.90;;;2.85;;
78774;SDS011;68119;43.398;3.676;2023-04-06T06:00:25;8.15;;;3.60;;
78774;SDS011;68119;43.398;3.676;2023-04-06T06:02:53;8.65;;;2.97;;
78774;SDS011;68119;43.398;3.676;2023-04-06T06:05:19;7.13;;;3.10;;
78774;SDS011;68119;43.398;3.676;2023-04-06T06:07:47;6.30;;;3.00;;
78774;SDS011;68119;43.398;3.676;2023-04-06T06:10:13;8.68;;;3.10;;
78774;SDS011;68119;43.398;3.676;2023-04-06T06:12:45;5.88;;;3.30;;
78774;SDS011;68119;43.398;3.676;2023-04-06T06:15:13;5.35;;;3.17;;
78774;SDS011;68119;43.398;3.676;2023-04-06T06:17:45;7.30;;;3.17;;
78774;SDS011;68119;43.398;3.676;2023-04-06T06:20:16;8.23;;;2.97;;
78774;SDS011;68119;43.398;3.676;2023-04-06T06:22:45;8.38;;;2.90;;
78774;SDS011;68119;43.398;3.676;2023-04-06T06:25:16;6.93;;;3.05;;
78774;SDS011;68119;43.398;3.676;2023-04-06T06:27:46;6.90;;;3.22;;
78774;SDS011;68119;43.398;3.676;2023-04-06T06:32:49;4.57;;;3.00;;
78774;SDS011;68119;43.398;3.676;2023-04-06T06:35:25;6.53;;;2.83;;
78774;SDS011;68119;43.398;3.676;2023-04-06T06:37:51;6.63;;;3.10;;
78774;SDS011;68119;43.398;3.676;2023-04-06T06:40:22;6.18;;;3.00;;
78774;SDS011;68119;43.398;3.676;2023-04-06T06:42:54;6.70;;;2.80;;
78774;SDS011;68119;43.398;3.676;2023-04-06T06:45:22;7.25;;;2.97;;
78774;SDS011;68119;43.398;3.676;2023-04-06T06:47:57;6.68;;;2.80;;
78774;SDS011;68119;43.398;3.676;2023-04-06T06:50:25;8.00;;;2.60;;
78774;SDS011;68119;43.398;3.676;2023-04-06T06:52:54;13.32;;;2.70;;
78774;SDS011;68119;43.398;3.676;2023-04-06T06:55:22;6.10;;;2.38;;
78774;SDS011;68119;43.398;3.676;2023-04-06T06:57:51;4.75;;;2.50;;
78774;SDS011;68119;43.398;3.676;2023-04-06T07:00:21;5.45;;;2.70;;
78774;SDS011;68119;43.398;3.676;2023-04-06T07:02:50;4.97;;;2.47;;
78774;SDS011;68119;43.398;3.676;2023-04-06T07:05:16;5.65;;;2.67;;
78774;SDS011;68119;43.398;3.676;2023-04-06T07:07:48;3.90;;;2.30;;
78774;SDS011;68119;43.398;3.676;2023-04-06T07:10:22;3.33;;;2.40;;
78774;SDS011;68119;43.398;3.676;2023-04-06T07:12:50;6.40;;;2.30;;
78774;SDS011;68119;43.398;3.676;2023-04-06T07:15:24;9.52;;;2.75;;
78774;SDS011;68119;43.398;3.676;2023-04-06T07:17:52;3.15;;;2.13;;
78774;SDS011;68119;43.398;3.676;2023-04-06T07:20:23;4.40;;;2.30;;
78774;SDS011;68119;43.398;3.676;2023-04-06T07:22:49;5.88;;;2.65;;
78774;SDS011;68119;43.398;3.676;2023-04-06T07:25:20;5.28;;;2.40;;
78774;SDS011;68119;43.398;3.676;2023-04-06T07:27:50;7.13;;;3.08;;
78774;SDS011;68119;43.398;3.676;2023-04-06T07:30:18;7.73;;;2.93;;
78774;SDS011;68119;43.398;3.676;2023-04-06T07:32:47;4.65;;;2.40;;
78774;SDS011;68119;43.398;3.676;2023-04-06T07:35:19;5.63;;;2.55;;
78774;SDS011;68119;43.398;3.676;2023-04-06T07:37:45;6.03;;;2.90;;
78774;SDS011;68119;43.398;3.676;2023-04-06T07:40:22;5.22;;;2.67;;
78774;SDS011;68119;43.398;3.676;2023-04-06T07:42:51;3.55;;;2.50;;
78774;SDS011;68119;43.398;3.676;2023-04-06T07:45:17;4.93;;;2.67;;
78774;SDS011;68119;43.398;3.676;2023-04-06T07:47:43;5.75;;;2.83;;
78774;SDS011;68119;43.398;3.676;2023-04-06T07:50:12;6.05;;;2.70;;
78774;SDS011;68119;43.398;3.676;2023-04-06T07:52:38;4.50;;;2.47;;
78774;SDS011;68119;43.398;3.676;2023-04-06T07:55:07;4.28;;;2.60;;
78774;SDS011;68119;43.398;3.676;2023-04-06T07:57:36;7.80;;;2.97;;
78774;SDS011;68119;43.398;3.676;2023-04-06T08:00:02;5.05;;;2.90;;
78774;SDS011;68119;43.398;3.676;2023-04-06T08:02:29;6.45;;;3.63;;
78774;SDS011;68119;43.398;3.676;2023-04-06T08:05:03;7.43;;;4.13;;
78774;SDS011;68119;43.398;3.676;2023-04-06T08:07:29;7.93;;;3.88;;
78774;SDS011;68119;43.398;3.676;2023-04-06T08:09:57;8.00;;;3.80;;
78774;SDS011;68119;43.398;3.676;2023-04-06T08:12:26;6.13;;;3.50;;
78774;SDS011;68119;43.398;3.676;2023-04-06T08:14:52;8.23;;;3.20;;
78774;SDS011;68119;43.398;3.676;2023-04-06T08:17:21;4.45;;;3.03;;
78774;SDS011;68119;43.398;3.676;2023-04-06T08:19:47;5.43;;;3.00;;
78774;SDS011;68119;43.398;3.676;2023-04-06T08:22:21;5.72;;;3.17;;
78774;SDS011;68119;43.398;3.676;2023-04-06T08:24:55;5.95;;;3.10;;
78774;SDS011;68119;43.398;3.676;2023-04-06T08:27:23;5.50;;;3.30;;
78774;SDS011;68119;43.398;3.676;2023-04-06T08:29:49;6.00;;;2.85;;
78774;SDS011;68119;43.398;3.676;2023-04-06T08:32:18;7.10;;;3.28;;
78774;SDS011;68119;43.398;3.676;2023-04-06T08:34:46;7.30;;;3.28;;
78774;SDS011;68119;43.398;3.676;2023-04-06T08:37:21;5.10;;;3.28;;
78774;SDS011;68119;43.398;3.676;2023-04-06T08:39:52;8.43;;;3.88;;
78774;SDS011;68119;43.398;3.676;2023-04-06T08:42:26;9.18;;;3.70;;
78774;SDS011;68119;43.398;3.676;2023-04-06T08:44:56;8.00;;;4.22;;
78774;SDS011;68119;43.398;3.676;2023-04-06T08:47:27;8.27;;;3.58;;
78774;SDS011;68119;43.398;3.676;2023-04-06T08:49:56;8.73;;;4.28;;
78774;SDS011;68119;43.398;3.676;2023-04-06T08:52:32;10.35;;;4.30;;
78774;SDS011;68119;43.398;3.676;2023-04-06T08:55:03;11.25;;;4.43;;
78774;SDS011;68119;43.398;3.676;2023-04-06T08:57:29;10.73;;;4.63;;
78774;SDS011;68119;43.398;3.676;2023-04-06T08:59:59;11.07;;;4.82;;
78774;SDS011;68119;43.398;3.676;2023-04-06T09:02:32;12.00;;;4.90;;
78774;SDS011;68119;43.398;3.676;2023-04-06T09:04:58;9.68;;;5.20;;
78774;SDS011;68119;43.398;3.676;2023-04-06T09:07:26;8.82;;;4.88;;
78774;SDS011;68119;43.398;3.676;2023-04-06T09:09:57;11.20;;;5.53;;
78774;SDS011;68119;43.398;3.676;2023-04-06T09:12:26;7.38;;;4.40;;
78774;SDS011;68119;43.398;3.676;2023-04-06T09:14:54;6.00;;;3.67;;
78774;SDS011;68119;43.398;3.676;2023-04-06T09:17:21;10.40;;;3.38;;
78774;SDS011;68119;43.398;3.676;2023-04-06T09:19:57;5.97;;;3.30;;
78774;SDS011;68119;43.398;3.676;2023-04-06T09:22:23;5.45;;;2.80;;
78774;SDS011;68119;43.398;3.676;2023-04-06T09:24:59;3.75;;;2.58;;
78774;SDS011;68119;43.398;3.676;2023-04-06T09:27:34;5.25;;;2.42;;
78774;SDS011;68119;43.398;3.676;2023-04-06T09:30:07;10.80;;;2.50;;
78774;SDS011;68119;43.398;3.676;2023-04-06T09:32:48;5.88;;;2.65;;
78774;SDS011;68119;43.398;3.676;2023-04-06T09:35:17;6.97;;;2.90;;
78774;SDS011;68119;43.398;3.676;2023-04-06T09:37:45;5.38;;;2.80;;
78774;SDS011;68119;43.398;3.676;2023-04-06T09:40:22;6.95;;;2.80;;
78774;SDS011;68119;43.398;3.676;2023-04-06T09:42:54;4.55;;;2.80;;
78774;SDS011;68119;43.398;3.676;2023-04-06T09:45:25;5.97;;;3.10;;
78774;SDS011;68119;43.398;3.676;2023-04-06T09:47:57;7.43;;;3.30;;
78774;SDS011;68119;43.398;3.676;2023-04-06T09:50:24;6.85;;;2.78;;
78774;SDS011;68119;43.398;3.676;2023-04-06T09:52:59;7.32;;;3.28;;
78774;SDS011;68119;43.398;3.676;2023-04-06T09:55:36;8.23;;;3.13;;
78774;SDS011;68119;43.398;3.676;2023-04-06T09:58:13;9.05;;;2.83;;
78774;SDS011;68119;43.398;3.676;2023-04-06T10:00:54;8.60;;;3.17;;
78774;SDS011;68119;43.398;3.676;2023-04-06T10:06:11;9.23;;;3.10;;
78774;SDS011;68119;43.398;3.676;2023-04-06T10:08:49;5.72;;;2.70;;
78774;SDS011;68119;43.398;3.676;2023-04-06T10:11:19;2.95;;;2.42;;
78774;SDS011;68119;43.398;3.676;2023-04-06T10:13:53;5.43;;;2.55;;
78774;SDS011;68119;43.398;3.676;2023-04-06T10:16:20;5.63;;;2.38;;
78774;SDS011;68119;43.398;3.676;2023-04-06T10:18:56;5.35;;;2.38;;
78774;SDS011;68119;43.398;3.676;2023-04-06T10:21:35;5.40;;;2.60;;
78774;SDS011;68119;43.398;3.676;2023-04-06T10:24:06;5.70;;;2.45;;
78774;SDS011;68119;43.398;3.676;2023-04-06T10:26:38;4.63;;;2.22;;
78774;SDS011;68119;43.398;3.676;2023-04-06T10:29:10;4.90;;;2.60;;
78774;SDS011;68119;43.398;3.676;2023-04-06T10:31:39;4.63;;;2.50;;
78774;SDS011;68119;43.398;3.676;2023-04-06T10:34:10;7.75;;;3.05;;
78774;SDS011;68119;43.398;3.676;2023-04-06T10:39:07;4.43;;;2.60;;
78774;SDS011;68119;43.398;3.676;2023-04-06T10:41:33;4.45;;;2.92;;
78774;SDS011;68119;43.398;3.676;2023-04-06T10:44:23;5.80;;;2.83;;
78774;SDS011;68119;43.398;3.676;2023-04-06T10:46:56;4.78;;;2.70;;
78774;SDS011;68119;43.398;3.676;2023-04-06T10:49:22;6.47;;;2.92;;
78774;SDS011;68119;43.398;3.676;2023-04-06T10:51:54;4.93;;;2.58;;
78774;SDS011;68119;43.398;3.676;2023-04-06T10:54:25;4.15;;;2.60;;
78774;SDS011;68119;43.398;3.676;2023-04-06T10:56:52;4.90;;;2.55;;
78774;SDS011;68119;43.398;3.676;2023-04-06T10:59:19;4.97;;;2.35;;
78774;SDS011;68119;43.398;3.676;2023-04-06T11:01:46;4.88;;;2.70;;
78774;SDS011;68119;43.398;3.676;2023-04-06T11:04:17;6.47;;;2.72;;
78774;SDS011;68119;43.398;3.676;2023-04-06T11:06:46;5.57;;;2.97;;
78774;SDS011;68119;43.398;3.676;2023-04-06T11:09:27;6.05;;;2.90;;
78774;SDS011;68119;43.398;3.676;2023-04-06T11:12:01;5.65;;;2.70;;
78774;SDS011;68119;43.398;3.676;2023-04-06T11:14:29;4.60;;;2.70;;
78774;SDS011;68119;43.398;3.676;2023-04-06T11:17:00;8.50;;;2.97;;
78774;SDS011;68119;43.398;3.676;2023-04-06T11:19:31;6.57;;;2.65;;
78774;SDS011;68119;43.398;3.676;2023-04-06T11:22:05;5.45;;;2.80;;
78774;SDS011;68119;43.398;3.676;2023-04-06T11:24:35;7.28;;;2.78;;
78774;SDS011;68119;43.398;3.676;2023-04-06T11:27:11;4.50;;;2.80;;
78774;SDS011;68119;43.398;3.676;2023-04-06T11:29:40;8.00;;;2.83;;
78774;SDS011;68119;43.398;3.676;2023-04-06T11:32:19;4.32;;;2.80;;
78774;SDS011;68119;43.398;3.676;2023-04-06T11:34:46;5.20;;;2.65;;
78774;SDS011;68119;43.398;3.676;2023-04-06T11:37:17;5.38;;;2.78;;
78774;SDS011;68119;43.398;3.676;2023-04-06T11:39:47;4.72;;;2.40;;
78774;SDS011;68119;43.398;3.676;2023-04-06T11:42:25;4.53;;;2.58;;
78774;SDS011;68119;43.398;3.676;2023-04-06T11:44:58;4.88;;;2.95;;
78774;SDS011;68119;43.398;3.676;2023-04-06T11:47:27;4.32;;;2.88;;
78774;SDS011;68119;43.398;3.676;2023-04-06T11:49:54;4.18;;;2.60;;
78774;SDS011;68119;43.398;3.676;2023-04-06T11:52:22;5.75;;;2.72;;
78774;SDS011;68119;43.398;3.676;2023-04-06T11:54:49;5.95;;;2.60;;
78774;SDS011;68119;43.398;3.676;2023-04-06T11:57:18;7.00;;;3.08;;
78774;SDS011;68119;43.398;3.676;2023-04-06T11:59:47;11.52;;;3.25;;
78774;SDS011;68119;43.398;3.676;2023-04-06T12:02:13;5.55;;;2.90;;
78774;SDS011;68119;43.398;3.676;2023-04-06T12:04:39;9.20;;;3.47;;
78774;SDS011;68119;43.398;3.676;2023-04-06T12:07:08;6.18;;;2.67;;
78774;SDS011;68119;43.398;3.676;2023-04-06T12:09:34;5.10;;;3.08;;
78774;SDS011;68119;43.398;3.676;2023-04-06T12:12:04;5.70;;;2.75;;
78774;SDS011;68119;43.398;3.676;2023-04-06T12:16:59;5.43;;;2.85;;
78774;SDS011;68119;43.398;3.676;2023-04-06T12:19:33;3.85;;;2.70;;
78774;SDS011;68119;43.398;3.676;2023-04-06T12:22:00;4.13;;;2.58;;
78774;SDS011;68119;43.398;3.676;2023-04-06T12:24:31;7.50;;;2.78;;
78774;SDS011;68119;43.398;3.676;2023-04-06T12:26:57;5.10;;;2.63;;
78774;SDS011;68119;43.398;3.676;2023-04-06T12:29:24;4.97;;;2.88;;
78774;SDS011;68119;43.398;3.676;2023-04-06T12:31:55;6.07;;;2.90;;
78774;SDS011;68119;43.398;3.676;2023-04-06T12:34:29;5.50;;;2.85;;
78774;SDS011;68119;43.398;3.676;2023-04-06T12:36:55;5.35;;;2.60;;
78774;SDS011;68119;43.398;3.676;2023-04-06T12:39:24;7.35;;;2.83;;
78774;SDS011;68119;43.398;3.676;2023-04-06T12:41:52;3.92;;;2.63;;
78774;SDS011;68119;43.398;3.676;2023-04-06T12:44:19;8.90;;;3.03;;
78774;SDS011;68119;43.398;3.676;2023-04-06T12:46:47;6.35;;;2.92;;
78774;SDS011;68119;43.398;3.676;2023-04-06T12:49:13;4.35;;;2.95;;
78774;SDS011;68119;43.398;3.676;2023-04-06T12:51:46;4.25;;;2.60;;
78774;SDS011;68119;43.398;3.676;2023-04-06T12:54:15;4.50;;;2.58;;
78774;SDS011;68119;43.398;3.676;2023-04-06T12:56:41;6.07;;;2.25;;
78774;SDS011;68119;43.398;3.676;2023-04-06T12:59:07;3.83;;;2.42;;
78774;SDS011;68119;43.398;3.676;2023-04-06T13:01:41;7.05;;;2.72;;
78774;SDS011;68119;43.398;3.676;2023-04-06T13:04:09;5.10;;;2.42;;
78774;SDS011;68119;43.398;3.676;2023-04-06T13:06:38;5.78;;;2.83;;
78774;SDS011;68119;43.398;3.676;2023-04-06T13:09:04;6.10;;;2.80;;
78774;SDS011;68119;43.398;3.676;2023-04-06T13:11:32;4.10;;;2.35;;
78774;SDS011;68119;43.398;3.676;2023-04-06T13:13:58;5.75;;;2.58;;
78774;SDS011;68119;43.398;3.676;2023-04-06T13:16:25;5.38;;;2.50;;
78774;SDS011;68119;43.398;3.676;2023-04-06T13:18:51;5.53;;;2.47;;
78774;SDS011;68119;43.398;3.676;2023-04-06T13:21:17;4.30;;;2.35;;
78774;SDS011;68119;43.398;3.676;2023-04-06T13:23:45;4.15;;;2.30;;
78774;SDS011;68119;43.398;3.676;2023-04-06T13:26:14;6.75;;;2.67;;
78774;SDS011;68119;43.398;3.676;2023-04-06T13:28:41;5.68;;;2.58;;
78774;SDS011;68119;43.398;3.676;2023-04-06T13:31:10;6.88;;;2.40;;
78774;SDS011;68119;43.398;3.676;2023-04-06T13:33:36;3.80;;;2.20;;
78774;SDS011;68119;43.398;3.676;2023-04-06T13:36:06;6.30;;;2.60;;
78774;SDS011;68119;43.398;3.676;2023-04-06T13:38:33;7.22;;;2.10;;
78774;SDS011;68119;43.398;3.676;2023-04-06T13:40:59;9.35;;;2.50;;
78774;SDS011;68119;43.398;3.676;2023-04-06T13:43:27;3.25;;;2.22;;
78774;SDS011;68119;43.398;3.676;2023-04-06T13:45:54;7.07;;;2.67;;
78774;SDS011;68119;43.398;3.676;2023-04-06T13:48:20;5.60;;;2.63;;
78774;SDS011;68119;43.398;3.676;2023-04-06T13:50:46;3.63;;;2.10;;
78774;SDS011;68119;43.398;3.676;2023-04-06T13:53:15;7.68;;;2.65;;
78774;SDS011;68119;43.398;3.676;2023-04-06T13:55:41;4.25;;;2.33;;
78774;SDS011;68119;43.398;3.676;2023-04-06T13:58:07;4.53;;;2.50;;
78774;SDS011;68119;43.398;3.676;2023-04-06T14:00:35;9.43;;;2.80;;
78774;SDS011;68119;43.398;3.676;2023-04-06T14:03:05;6.75;;;2.45;;
78774;SDS011;68119;43.398;3.676;2023-04-06T14:05:36;4.45;;;2.50;;
78774;SDS011;68119;43.398;3.676;2023-04-06T14:08:04;5.68;;;2.40;;
78774;SDS011;68119;43.398;3.676;2023-04-06T14:10:36;4.80;;;2.80;;
78774;SDS011;68119;43.398;3.676;2023-04-06T14:13:03;3.95;;;2.45;;
78774;SDS011;68119;43.398;3.676;2023-04-06T14:15:29;6.53;;;2.70;;
78774;SDS011;68119;43.398;3.676;2023-04-06T14:17:59;4.65;;;2.60;;
78774;SDS011;68119;43.398;3.676;2023-04-06T14:20:30;5.15;;;2.63;;
78774;SDS011;68119;43.398;3.676;2023-04-06T14:23:00;4.18;;;2.50;;
78774;SDS011;68119;43.398;3.676;2023-04-06T14:25:26;5.22;;;2.65;;
78774;SDS011;68119;43.398;3.676;2023-04-06T14:27:56;5.15;;;2.45;;
78774;SDS011;68119;43.398;3.676;2023-04-06T14:30:26;5.30;;;2.80;;
78774;SDS011;68119;43.398;3.676;2023-04-06T14:32:52;4.07;;;2.40;;
78774;SDS011;68119;43.398;3.676;2023-04-06T14:35:19;6.40;;;2.75;;
78774;SDS011;68119;43.398;3.676;2023-04-06T14:37:47;5.57;;;2.30;;
78774;SDS011;68119;43.398;3.676;2023-04-06T14:40:15;5.38;;;2.50;;
78774;SDS011;68119;43.398;3.676;2023-04-06T14:42:44;4.55;;;2.40;;
78774;SDS011;68119;43.398;3.676;2023-04-06T14:45:10;6.35;;;2.30;;
78774;SDS011;68119;43.398;3.676;2023-04-06T14:47:36;4.53;;;2.50;;
78774;SDS011;68119;43.398;3.676;2023-04-06T14:50:04;4.72;;;2.20;;
78774;SDS011;68119;43.398;3.676;2023-04-06T14:52:33;8.70;;;2.60;;
78774;SDS011;68119;43.398;3.676;2023-04-06T14:55:02;6.22;;;2.35;;
78774;SDS011;68119;43.398;3.676;2023-04-06T14:57:31;6.35;;;2.60;;
78774;SDS011;68119;43.398;3.676;2023-04-06T15:00:00;5.43;;;2.42;;
78774;SDS011;68119;43.398;3.676;2023-04-06T15:02:29;5.75;;;2.92;;
78774;SDS011;68119;43.398;3.676;2023-04-06T15:04:58;6.43;;;2.60;;
78774;SDS011;68119;43.398;3.676;2023-04-06T15:07:24;6.00;;;2.55;;
78774;SDS011;68119;43.398;3.676;2023-04-06T15:09:52;8.68;;;2.63;;
78774;SDS011;68119;43.398;3.676;2023-04-06T15:12:18;6.68;;;2.72;;